Time,TemperatureF,DewpointF,PressureIn,WindDirection,WindDirectionDegrees,WindSpeedMPH,WindSpeedGustMPH,Humidity,HourlyPrecipIn,Conditions,Clouds,dailyrainin,SoftwareType,DateUTC
2013-05-23 00:07:00,56.0,55.0,29.96,West,271,6.0,-999.0,97,-99.99,,,0.00,weatherlink.com 1.10,2013-05-23 04:07:00,
2013-05-23 01:14:00,55.8,55.0,29.93,SW,236,4.0,-999.0,97,-99.99,,,0.10,weatherlink.com 1.10,2013-05-23 05:14:00,
2013-05-23 01:22:00,55.9,55.0,29.93,WSW,252,5.0,-999.0,98,-99.99,,,0.10,weatherlink.com 1.10,2013-05-23 05:22:00,
2013-05-23 01:37:00,55.7,55.0,29.92,WNW,290,6.0,-999.0,98,-99.99,,,0.10,weatherlink.com 1.10,2013-05-23 05:37:00,
2013-05-23 01:52:00,55.8,55.0,29.92,WSW,241,7.0,-999.0,98,-99.99,,,0.11,weatherlink.com 1.10,2013-05-23 05:52:00,
2013-05-23 02:07:00,55.7,56.0,29.91,WNW,292,3.0,-999.0,99,-99.99,,,0.12,weatherlink.com 1.10,2013-05-23 06:07:00,
2013-05-23 02:22:00,55.1,55.0,29.90,WNW,292,2.0,-999.0,98,-99.99,,,0.12,weatherlink.com 1.10,2013-05-23 06:22:00,
2013-05-23 02:37:00,56.4,56.0,29.90,NW,315,3.0,-999.0,97,-99.99,,,0.13,weatherlink.com 1.10,2013-05-23 06:37:00,
2013-05-23 02:52:00,57.8,56.0,29.91,WSW,254,7.0,-999.0,93,-99.99,,,0.13,weatherlink.com 1.10,2013-05-23 06:52:00,
2013-05-23 03:07:00,56.1,55.0,29.91,SW,227,4.0,-999.0,95,-99.99,,,0.13,weatherlink.com 1.10,2013-05-23 07:07:00,
2013-05-23 03:22:00,55.7,55.0,29.91,West,261,3.0,-999.0,97,-99.99,,,0.13,weatherlink.com 1.10,2013-05-23 07:22:00,
2013-05-23 03:37:00,55.4,55.0,29.91,WNW,286,8.0,-999.0,98,-99.99,,,0.13,weatherlink.com 1.10,2013-05-23 07:37:00,
2013-05-23 03:52:00,55.2,55.0,29.91,West,280,6.0,-999.0,98,-99.99,,,0.13,weatherlink.com 1.10,2013-05-23 07:52:00,
2013-05-23 04:07:00,55.5,55.0,29.91,West,280,7.0,-999.0,98,-99.99,,,0.13,weatherlink.com 1.10,2013-05-23 08:07:00,
2013-05-23 04:22:00,55.8,55.0,29.91,WNW,288,7.0,-999.0,98,-99.99,,,0.13,weatherlink.com 1.10,2013-05-23 08:22:00,
2013-05-23 04:37:00,56.0,56.0,29.91,WSW,246,7.0,-999.0,98,-99.99,,,0.13,weatherlink.com 1.10,2013-05-23 08:37:00,
2013-05-23 04:52:00,56.2,56.0,29.91,SW,232,9.0,-999.0,98,-99.99,,,0.13,weatherlink.com 1.10,2013-05-23 08:52:00,
2013-05-23 05:07:00,56.1,56.0,29.91,SW,231,6.0,-999.0,98,-99.99,,,0.13,weatherlink.com 1.10,2013-05-23 09:07:00,
2013-05-23 05:22:00,56.0,56.0,29.91,SSW,196,6.0,-999.0,98,-99.99,,,0.13,weatherlink.com 1.10,2013-05-23 09:22:00,
2013-05-23 05:37:00,55.8,55.0,29.90,SW,216,6.0,-999.0,98,-99.99,,,0.13,weatherlink.com 1.10,2013-05-23 09:37:00,
2013-05-23 05:52:00,55.8,55.0,29.91,SSW,202,5.0,-999.0,98,-99.99,,,0.13,weatherlink.com 1.10,2013-05-23 09:52:00,
2013-05-23 06:07:00,55.7,56.0,29.91,SW,217,9.0,-999.0,99,-99.99,,,0.13,weatherlink.com 1.10,2013-05-23 10:07:00,
2013-05-23 06:22:00,55.7,56.0,29.91,SW,223,9.0,-999.0,99,-99.99,,,0.13,weatherlink.com 1.10,2013-05-23 10:22:00,
2013-05-23 06:37:00,55.9,56.0,29.91,WSW,255,4.0,-999.0,99,-99.99,,,0.13,weatherlink.com 1.10,2013-05-23 10:37:00,
2013-05-23 06:52:00,55.9,56.0,29.92,WNW,296,1.0,-999.0,99,-99.99,,,0.13,weatherlink.com 1.10,2013-05-23 10:52:00,
2013-05-23 07:07:00,56.2,56.0,29.92,WNW,296,2.0,-999.0,99,-99.99,,,0.13,weatherlink.com 1.10,2013-05-23 11:07:00,
2013-05-23 07:22:00,57.8,58.0,29.91,WNW,296,3.0,-999.0,99,-99.99,,,0.13,weatherlink.com 1.10,2013-05-23 11:22:00,
2013-05-23 07:37:00,59.6,57.0,29.92,WNW,296,2.0,-999.0,92,-99.99,,,0.13,weatherlink.com 1.10,2013-05-23 11:37:00,
2013-05-23 07:52:00,58.8,57.0,29.92,NNW,340,3.0,-999.0,92,-99.99,,,0.13,weatherlink.com 1.10,2013-05-23 11:52:00,
2013-05-23 08:07:00,58.7,57.0,29.92,NNW,339,7.0,-999.0,93,-99.99,,,0.13,weatherlink.com 1.10,2013-05-23 12:07:00,
2013-05-23 08:22:00,59.2,57.0,29.92,NNW,329,4.0,-999.0,91,-99.99,,,0.13,weatherlink.com 1.10,2013-05-23 12:22:00,
2013-05-23 08:37:00,59.6,57.0,29.92,NNE,13,0.0,-999.0,92,-99.99,,,0.13,weatherlink.com 1.10,2013-05-23 12:37:00,
2013-05-23 08:52:00,59.7,57.0,29.92,NW,325,3.0,-999.0,91,-99.99,,,0.13,weatherlink.com 1.10,2013-05-23 12:52:00,
2013-05-23 09:07:00,60.3,58.0,29.92,NNW,335,0.0,-999.0,93,-99.99,,,0.13,weatherlink.com 1.10,2013-05-23 13:07:00,
2013-05-23 09:22:00,61.2,59.0,29.93,NW,325,5.0,-999.0,91,-99.99,,,0.13,weatherlink.com 1.10,2013-05-23 13:22:00,
2013-05-23 09:37:00,61.3,58.0,29.93,NNE,30,1.0,-999.0,89,-99.99,,,0.13,weatherlink.com 1.10,2013-05-23 13:37:00,
2013-05-23 09:52:00,61.6,57.0,29.93,WNW,282,7.0,-999.0,86,-99.99,,,0.13,weatherlink.com 1.10,2013-05-23 13:52:00,
2013-05-23 10:07:00,61.6,58.0,29.93,WSW,258,14.0,-999.0,87,-99.99,,,0.13,weatherlink.com 1.10,2013-05-23 14:07:00,
2013-05-23 10:22:00,61.2,58.0,29.93,North,360,7.0,-999.0,88,-99.99,,,0.13,weatherlink.com 1.10,2013-05-23 14:22:00,
2013-05-23 10:37:00,60.7,58.0,29.92,North,355,3.0,-999.0,89,-99.99,,,0.13,weatherlink.com 1.10,2013-05-23 14:37:00,
2013-05-23 10:52:00,61.1,57.0,29.92,NNW,340,4.0,-999.0,86,-99.99,,,0.13,weatherlink.com 1.10,2013-05-23 14:52:00,
2013-05-23 11:07:00,61.0,56.0,29.93,North,360,14.0,-999.0,84,-99.99,,,0.13,weatherlink.com 1.10,2013-05-23 15:07:00,
2013-05-23 11:22:00,61.2,57.0,29.93,WSW,252,9.0,-999.0,85,-99.99,,,0.13,weatherlink.com 1.10,2013-05-23 15:22:00,
2013-05-23 11:37:00,61.9,57.0,29.93,North,360,11.0,-999.0,83,-99.99,,,0.13,weatherlink.com 1.10,2013-05-23 15:37:00,
2013-05-23 11:52:00,62.0,57.0,29.93,WNW,298,12.0,-999.0,83,-99.99,,,0.13,weatherlink.com 1.10,2013-05-23 15:52:00,
2013-05-23 12:07:00,62.5,58.0,29.93,NW,315,3.0,-999.0,85,-99.99,,,0.13,weatherlink.com 1.10,2013-05-23 16:07:00,
2013-05-23 12:21:00,62.4,57.0,29.93,WNW,302,12.0,-999.0,83,-99.99,,,0.13,weatherlink.com 1.10,2013-05-23 16:21:00,
2013-05-23 12:36:00,63.5,58.0,29.92,WNW,300,4.0,-999.0,82,-99.99,,,0.13,weatherlink.com 1.10,2013-05-23 16:36:00,
2013-05-23 12:51:00,63.7,57.0,29.92,NW,318,7.0,-999.0,79,-99.99,,,0.13,weatherlink.com 1.10,2013-05-23 16:51:00,
2013-05-23 13:06:00,64.4,58.0,29.92,NNW,347,5.0,-999.0,79,-99.99,,,0.13,weatherlink.com 1.10,2013-05-23 17:06:00,
2013-05-23 13:21:00,65.0,58.0,29.91,NNW,336,8.0,-999.0,77,-99.99,,,0.13,weatherlink.com 1.10,2013-05-23 17:21:00,
2013-05-23 13:36:00,64.6,56.0,29.91,West,281,11.0,-999.0,74,-99.99,,,0.13,weatherlink.com 1.10,2013-05-23 17:36:00,
2013-05-23 13:51:00,65.1,57.0,29.91,NW,309,10.0,-999.0,74,-99.99,,,0.13,weatherlink.com 1.10,2013-05-23 17:51:00,
2013-05-23 14:06:00,66.8,55.0,29.90,West,281,14.0,-999.0,67,-99.99,,,0.13,weatherlink.com 1.10,2013-05-23 18:06:00,
2013-05-23 14:21:00,65.8,51.0,29.90,NW,313,8.0,-999.0,60,-99.99,,,0.13,weatherlink.com 1.10,2013-05-23 18:21:00,
2013-05-23 14:36:00,66.1,52.0,29.89,WNW,300,10.0,-999.0,60,-99.99,,,0.13,weatherlink.com 1.10,2013-05-23 18:36:00,
2013-05-23 14:51:00,67.1,52.0,29.89,NW,318,12.0,-999.0,59,-99.99,,,0.13,weatherlink.com 1.10,2013-05-23 18:51:00,
2013-05-23 15:06:00,67.2,52.0,29.89,North,360,12.0,-999.0,58,-99.99,,,0.13,weatherlink.com 1.10,2013-05-23 19:06:00,
2013-05-23 15:21:00,68.4,51.0,29.88,NW,322,7.0,-999.0,55,-99.99,,,0.13,weatherlink.com 1.10,2013-05-23 19:21:00,
2013-05-23 15:36:00,67.5,50.0,29.88,NW,306,19.0,-999.0,53,-99.99,,,0.13,weatherlink.com 1.10,2013-05-23 19:36:00,
2013-05-23 15:51:00,68.1,51.0,29.88,North,360,8.0,-999.0,54,-99.99,,,0.13,weatherlink.com 1.10,2013-05-23 19:51:00,
2013-05-23 16:06:00,67.0,51.0,29.87,NNW,338,3.0,-999.0,57,-99.99,,,0.13,weatherlink.com 1.10,2013-05-23 20:06:00,
2013-05-23 16:21:00,69.1,53.0,29.87,NW,323,6.0,-999.0,56,-99.99,,,0.13,weatherlink.com 1.10,2013-05-23 20:21:00,
2013-05-23 16:36:00,67.7,50.0,29.87,WSW,256,10.0,-999.0,53,-99.99,,,0.13,weatherlink.com 1.10,2013-05-23 20:36:00,
2013-05-23 16:51:00,67.7,51.0,29.87,SW,236,7.0,-999.0,56,-99.99,,,0.13,weatherlink.com 1.10,2013-05-23 20:51:00,
2013-05-23 17:06:00,68.5,51.0,29.86,West,281,8.0,-999.0,54,-99.99,,,0.13,weatherlink.com 1.10,2013-05-23 21:06:00,
2013-05-23 17:21:00,68.3,52.0,29.86,WSW,242,7.0,-999.0,57,-99.99,,,0.13,weatherlink.com 1.10,2013-05-23 21:21:00,
2013-05-23 17:36:00,69.2,52.0,29.86,NW,304,6.0,-999.0,54,-99.99,,,0.13,weatherlink.com 1.10,2013-05-23 21:36:00,
2013-05-23 17:51:00,69.0,50.0,29.86,WSW,247,9.0,-999.0,52,-99.99,,,0.13,weatherlink.com 1.10,2013-05-23 21:51:00,
2013-05-23 18:06:00,69.0,52.0,29.86,NW,315,6.0,-999.0,54,-99.99,,,0.13,weatherlink.com 1.10,2013-05-23 22:06:00,
2013-05-23 18:21:00,67.6,52.0,29.86,North,360,10.0,-999.0,58,-99.99,,,0.13,weatherlink.com 1.10,2013-05-23 22:21:00,
2013-05-23 18:36:00,66.4,52.0,29.86,North,360,9.0,-999.0,61,-99.99,,,0.13,weatherlink.com 1.10,2013-05-23 22:36:00,
2013-05-23 18:51:00,65.6,53.0,29.87,WNW,290,14.0,-999.0,63,-99.99,,,0.13,weatherlink.com 1.10,2013-05-23 22:51:00,
2013-05-23 19:06:00,65.0,53.0,29.86,West,281,18.0,-999.0,65,-99.99,,,0.13,weatherlink.com 1.10,2013-05-23 23:06:00,
2013-05-23 19:21:00,63.4,54.0,29.86,NW,309,8.0,-999.0,71,-99.99,,,0.13,weatherlink.com 1.10,2013-05-23 23:21:00,
2013-05-23 19:36:00,61.3,53.0,29.86,West,274,15.0,-999.0,74,-99.99,,,0.13,weatherlink.com 1.10,2013-05-23 23:36:00,
2013-05-23 19:51:00,60.5,53.0,29.86,NW,304,12.0,-999.0,75,-99.99,,,0.13,weatherlink.com 1.10,2013-05-23 23:51:00,
2013-05-23 20:06:00,60.2,53.0,29.85,North,360,12.0,-999.0,76,-99.99,,,0.13,weatherlink.com 1.10,2013-05-24 00:06:00,
2013-05-23 20:21:00,59.4,53.0,29.84,North,360,21.0,-999.0,79,-99.99,,,0.13,weatherlink.com 1.10,2013-05-24 00:21:00,
2013-05-23 20:36:00,58.3,54.0,29.84,North,360,16.0,-999.0,84,-99.99,,,0.13,weatherlink.com 1.10,2013-05-24 00:36:00,
2013-05-23 20:51:00,57.3,54.0,29.84,North,360,23.0,-999.0,89,-99.99,,,0.13,weatherlink.com 1.10,2013-05-24 00:51:00,
2013-05-23 21:06:00,57.0,53.0,29.86,NNW,342,9.0,-999.0,87,-99.99,,,0.13,weatherlink.com 1.10,2013-05-24 01:06:00,
2013-05-23 21:21:00,56.5,54.0,29.87,NW,317,16.0,-999.0,90,-99.99,,,0.13,weatherlink.com 1.10,2013-05-24 01:21:00,
2013-05-23 21:36:00,56.5,54.0,29.86,North,360,17.0,-999.0,90,-99.99,,,0.13,weatherlink.com 1.10,2013-05-24 01:36:00,
2013-05-23 21:51:00,56.3,54.0,29.86,North,360,7.0,-999.0,91,-99.99,,,0.13,weatherlink.com 1.10,2013-05-24 01:51:00,
2013-05-23 22:06:00,56.2,54.0,29.86,North,360,17.0,-999.0,92,-99.99,,,0.13,weatherlink.com 1.10,2013-05-24 02:06:00,
2013-05-23 22:21:00,56.1,54.0,29.86,NNW,339,11.0,-999.0,92,-99.99,,,0.13,weatherlink.com 1.10,2013-05-24 02:21:00,
2013-05-23 22:36:00,56.0,54.0,29.86,NNW,341,16.0,-999.0,92,-99.99,,,0.13,weatherlink.com 1.10,2013-05-24 02:36:00,
2013-05-23 22:51:00,55.8,54.0,29.86,NNW,328,8.0,-999.0,93,-99.99,,,0.13,weatherlink.com 1.10,2013-05-24 02:51:00,
2013-05-23 23:06:00,55.7,54.0,29.86,NNW,338,23.0,-999.0,93,-99.99,,,0.13,weatherlink.com 1.10,2013-05-24 03:06:00,
2013-05-23 23:21:00,55.6,53.0,29.87,North,9,22.0,-999.0,92,-99.99,,,0.13,weatherlink.com 1.10,2013-05-24 03:21:00,
2013-05-23 23:36:00,55.3,53.0,29.87,NW,325,14.0,-999.0,91,-99.99,,,0.13,weatherlink.com 1.10,2013-05-24 03:36:00,
2013-05-23 23:51:00,54.9,52.0,29.87,NW,321,12.0,-999.0,89,-99.99,,,0.13,weatherlink.com 1.10,2013-05-24 03:51:00,